Airfield :
LOGIN :

Register | Disclaimer

   EN    FR    IT 

 










Legend :    VFR   Marginal VFR   IFR   Intensive IFR   Very Intensive IFR
Visi :
Ceiling :
>= 8 km
>= 3000ft
5 to 8 km
1000 to 3000 ft
1500m to 5 km
500 to 1000 ft
800 to 1500m
200 to 500 ft
< 800m
< 200 ft
Symbols :   Thunderstorms  Fog  Heavy snow  Heavy precipitations  Wind > 20 kt
SIGMETs :     Misc.  Thunderstorms  Icing  Turbulence  Mountain Waves  Volcanic Ashes







- Airport Elevation : 257 ft
- IATA code : MAN
- Download approach charts


EGCC - Manchester

CURRENT METAR :
  • 160150Z AUTO 34003KT 5000 -RA BKN002 OVC008 12/12 Q1022 RERA REDZ TEMPO 4000 RADZ

EXPIRED METARs :
  • 160120Z AUTO 35003KT 3800 RADZ BKN003 OVC006 12/12 Q1022 RERA NOSIG
  • 160050Z AUTO 35004KT 3800 RA BKN002 OVC023 12/12 Q1022 REDZ TEMPO NOSIG
  • 160020Z AUTO 03002KT 3500 -RADZ BKN003 BKN020 BKN025 12/12 Q1022 RERA REDZ TEMPO 6000 NSW BKN010
  • 152350Z AUTO 03003KT 4000 RADZ SCT002 OVC016 12/12 Q1022
  • 152320Z AUTO 04004KT 3600 RA BKN002 BKN016 OVC023 12/12 Q1022 TEMPO 6000 NSW BKN010
  • 152250Z AUTO 04004KT 3100 RA BKN003 OVC020 12/12 Q1022

TAF AMD TAF EGCC
Valid from the 16 at 00:00 until the 17 at 06:00 UTC


160025Z 1600/1706 04004KT 8000 SCT002
TEMPO 1600/1611 4000 RADZ BKN006
PROB30
TEMPO 1600/1609 BKN002
BECMG 1611/1614 32010KT 9999 NSW
ATIS : +44 161 499 2324
No reported NOTAMs for that airfield.



MET'MAP, your aeronautical weather chart ! - Copyright ORBIFLY December 2007 - Disclaimer

ORBIFLY MET'MAP TEAM :

Programming & Development : Alexandra Zaïnal
Concept & Development : Baudouin d'Aumeries
Co-Development & Prog : Marc-Olivier Méhu
Technical & hardware support : Manuel Goepfert

Contact : metmap@orbifly.com




SOURCES & CREDITS :

   NOAA